Terminal Aerodrome Forecast
Issued by NWS

Home | Current Version | Previous Version | Text Only | Print | Product List | Glossary On
Versions: 1 2 3 4 5 6 7 8 9 10 11 12 13 14 15 16 17 18 19 20 21 22 23 24 25 26 27 28 29 30 31 32 33 34 35 36
000
FTUS45 KGGW 290500
TAFOLF
TAF
KOLF 290525Z 2906/3006 34008KT P6SM VCSH OVC016
     FM291800 32012KT 3/4SM -SN BKN015
     FM292000 32011KT 3SM -SN BKN015
     FM300000 31011KT P6SM BKN025=

USA.gov is the U.S. government's official web portal to all federal, state and local government web resources and services.